sensor_id;sensor_type;location;lat;lon;timestamp;P1;durP1;ratioP1;P2;durP2;ratioP2
26750;SDS011;14345;48.272;25.926;2023-08-30T00:00:55;8.75;;;3.50;;
26750;SDS011;14345;48.272;25.926;2023-08-30T00:03:21;4.75;;;2.85;;
26750;SDS011;14345;48.272;25.926;2023-08-30T00:05:47;5.63;;;2.97;;
26750;SDS011;14345;48.272;25.926;2023-08-30T00:08:13;6.40;;;2.92;;
26750;SDS011;14345;48.272;25.926;2023-08-30T00:10:43;7.13;;;3.33;;
26750;SDS011;14345;48.272;25.926;2023-08-30T00:13:09;7.55;;;3.35;;
26750;SDS011;14345;48.272;25.926;2023-08-30T00:15:35;6.50;;;3.42;;
26750;SDS011;14345;48.272;25.926;2023-08-30T00:18:01;8.10;;;3.75;;
26750;SDS011;14345;48.272;25.926;2023-08-30T00:20:27;7.47;;;3.08;;
26750;SDS011;14345;48.272;25.926;2023-08-30T00:22:53;8.10;;;3.47;;
26750;SDS011;14345;48.272;25.926;2023-08-30T00:25:19;7.28;;;2.90;;
26750;SDS011;14345;48.272;25.926;2023-08-30T00:27:45;8.68;;;3.47;;
26750;SDS011;14345;48.272;25.926;2023-08-30T00:30:11;8.68;;;3.15;;
26750;SDS011;14345;48.272;25.926;2023-08-30T00:32:37;8.18;;;3.85;;
26750;SDS011;14345;48.272;25.926;2023-08-30T00:35:04;6.07;;;3.20;;
26750;SDS011;14345;48.272;25.926;2023-08-30T00:37:30;6.97;;;3.20;;
26750;SDS011;14345;48.272;25.926;2023-08-30T00:39:56;6.63;;;3.55;;
26750;SDS011;14345;48.272;25.926;2023-08-30T00:42:22;7.80;;;3.53;;
26750;SDS011;14345;48.272;25.926;2023-08-30T00:44:48;8.43;;;3.80;;
26750;SDS011;14345;48.272;25.926;2023-08-30T00:47:14;7.97;;;3.92;;
26750;SDS011;14345;48.272;25.926;2023-08-30T00:49:40;6.57;;;2.92;;
26750;SDS011;14345;48.272;25.926;2023-08-30T00:52:07;6.18;;;4.03;;
26750;SDS011;14345;48.272;25.926;2023-08-30T00:54:34;7.85;;;4.47;;
26750;SDS011;14345;48.272;25.926;2023-08-30T00:57:00;10.00;;;4.22;;
26750;SDS011;14345;48.272;25.926;2023-08-30T00:59:27;10.73;;;4.47;;
26750;SDS011;14345;48.272;25.926;2023-08-30T01:01:53;10.75;;;5.15;;
26750;SDS011;14345;48.272;25.926;2023-08-30T01:04:20;12.18;;;5.97;;
26750;SDS011;14345;48.272;25.926;2023-08-30T01:06:47;10.63;;;6.75;;
26750;SDS011;14345;48.272;25.926;2023-08-30T01:09:13;12.07;;;7.03;;
26750;SDS011;14345;48.272;25.926;2023-08-30T01:11:43;13.57;;;7.70;;
26750;SDS011;14345;48.272;25.926;2023-08-30T01:14:21;14.57;;;9.00;;
26750;SDS011;14345;48.272;25.926;2023-08-30T01:16:48;15.48;;;8.98;;
26750;SDS011;14345;48.272;25.926;2023-08-30T01:19:31;15.88;;;8.77;;
26750;SDS011;14345;48.272;25.926;2023-08-30T01:22:03;13.43;;;8.55;;
26750;SDS011;14345;48.272;25.926;2023-08-30T01:24:57;15.07;;;8.70;;
26750;SDS011;14345;48.272;25.926;2023-08-30T01:27:17;13.80;;;9.27;;
26750;SDS011;14345;48.272;25.926;2023-08-30T01:29:44;19.60;;;9.48;;
26750;SDS011;14345;48.272;25.926;2023-08-30T01:32:12;18.83;;;11.18;;
26750;SDS011;14345;48.272;25.926;2023-08-30T01:34:38;16.88;;;9.88;;
26750;SDS011;14345;48.272;25.926;2023-08-30T01:37:06;19.85;;;10.27;;
26750;SDS011;14345;48.272;25.926;2023-08-30T01:39:36;14.88;;;9.55;;
26750;SDS011;14345;48.272;25.926;2023-08-30T01:42:02;16.40;;;10.40;;
26750;SDS011;14345;48.272;25.926;2023-08-30T01:44:29;18.58;;;10.60;;
26750;SDS011;14345;48.272;25.926;2023-08-30T01:46:56;17.00;;;10.73;;
26750;SDS011;14345;48.272;25.926;2023-08-30T01:49:24;17.33;;;10.15;;
26750;SDS011;14345;48.272;25.926;2023-08-30T01:51:51;18.60;;;10.68;;
26750;SDS011;14345;48.272;25.926;2023-08-30T01:54:18;17.20;;;9.77;;
26750;SDS011;14345;48.272;25.926;2023-08-30T01:56:45;17.35;;;9.82;;
26750;SDS011;14345;48.272;25.926;2023-08-30T01:59:11;20.27;;;13.05;;
26750;SDS011;14345;48.272;25.926;2023-08-30T02:01:38;32.63;;;22.35;;
26750;SDS011;14345;48.272;25.926;2023-08-30T02:04:04;29.40;;;20.00;;
26750;SDS011;14345;48.272;25.926;2023-08-30T02:09:01;21.20;;;13.45;;
26750;SDS011;14345;48.272;25.926;2023-08-30T02:11:29;17.70;;;11.82;;
26750;SDS011;14345;48.272;25.926;2023-08-30T02:13:57;15.63;;;9.80;;
26750;SDS011;14345;48.272;25.926;2023-08-30T02:16:23;18.25;;;11.30;;
26750;SDS011;14345;48.272;25.926;2023-08-30T02:18:51;16.13;;;10.55;;
26750;SDS011;14345;48.272;25.926;2023-08-30T02:21:17;18.48;;;10.80;;
26750;SDS011;14345;48.272;25.926;2023-08-30T02:23:44;20.55;;;10.75;;
26750;SDS011;14345;48.272;25.926;2023-08-30T02:26:10;19.80;;;10.10;;
26750;SDS011;14345;48.272;25.926;2023-08-30T02:28:36;18.15;;;11.27;;
26750;SDS011;14345;48.272;25.926;2023-08-30T02:31:03;14.73;;;10.05;;
26750;SDS011;14345;48.272;25.926;2023-08-30T02:33:29;16.73;;;10.10;;
26750;SDS011;14345;48.272;25.926;2023-08-30T02:35:55;14.68;;;9.75;;
26750;SDS011;14345;48.272;25.926;2023-08-30T02:38:21;19.42;;;10.65;;
26750;SDS011;14345;48.272;25.926;2023-08-30T02:40:47;17.30;;;10.13;;
26750;SDS011;14345;48.272;25.926;2023-08-30T02:43:13;15.85;;;9.90;;
26750;SDS011;14345;48.272;25.926;2023-08-30T02:45:39;13.85;;;8.65;;
26750;SDS011;14345;48.272;25.926;2023-08-30T02:48:05;16.90;;;9.38;;
26750;SDS011;14345;48.272;25.926;2023-08-30T02:50:31;17.45;;;9.40;;
26750;SDS011;14345;48.272;25.926;2023-08-30T02:52:57;14.88;;;8.32;;
26750;SDS011;14345;48.272;25.926;2023-08-30T02:55:23;12.63;;;7.60;;
26750;SDS011;14345;48.272;25.926;2023-08-30T02:57:49;14.93;;;8.30;;
26750;SDS011;14345;48.272;25.926;2023-08-30T03:00:15;12.55;;;7.15;;
26750;SDS011;14345;48.272;25.926;2023-08-30T03:02:41;12.07;;;6.75;;
26750;SDS011;14345;48.272;25.926;2023-08-30T03:05:09;10.95;;;7.47;;
26750;SDS011;14345;48.272;25.926;2023-08-30T03:07:36;10.90;;;7.28;;
26750;SDS011;14345;48.272;25.926;2023-08-30T03:10:02;13.32;;;7.55;;
26750;SDS011;14345;48.272;25.926;2023-08-30T03:12:29;11.05;;;7.40;;
26750;SDS011;14345;48.272;25.926;2023-08-30T03:14:55;15.05;;;7.60;;
26750;SDS011;14345;48.272;25.926;2023-08-30T03:17:21;18.10;;;7.80;;
26750;SDS011;14345;48.272;25.926;2023-08-30T03:19:47;15.23;;;7.45;;
26750;SDS011;14345;48.272;25.926;2023-08-30T03:22:13;13.98;;;7.95;;
26750;SDS011;14345;48.272;25.926;2023-08-30T03:24:39;12.80;;;6.68;;
26750;SDS011;14345;48.272;25.926;2023-08-30T03:27:05;12.55;;;7.90;;
26750;SDS011;14345;48.272;25.926;2023-08-30T03:29:31;10.70;;;6.85;;
26750;SDS011;14345;48.272;25.926;2023-08-30T03:31:57;15.57;;;7.80;;
26750;SDS011;14345;48.272;25.926;2023-08-30T03:34:23;14.77;;;7.45;;
26750;SDS011;14345;48.272;25.926;2023-08-30T03:36:49;17.75;;;9.13;;
26750;SDS011;14345;48.272;25.926;2023-08-30T03:39:19;14.35;;;8.43;;
26750;SDS011;14345;48.272;25.926;2023-08-30T03:41:45;16.50;;;9.65;;
26750;SDS011;14345;48.272;25.926;2023-08-30T03:44:11;16.15;;;9.25;;
26750;SDS011;14345;48.272;25.926;2023-08-30T03:46:37;17.13;;;9.82;;
26750;SDS011;14345;48.272;25.926;2023-08-30T03:49:03;19.25;;;10.48;;
26750;SDS011;14345;48.272;25.926;2023-08-30T03:51:29;22.35;;;12.35;;
26750;SDS011;14345;48.272;25.926;2023-08-30T03:53:55;20.10;;;11.23;;
26750;SDS011;14345;48.272;25.926;2023-08-30T03:56:22;21.52;;;12.25;;
26750;SDS011;14345;48.272;25.926;2023-08-30T03:58:48;22.50;;;12.18;;
26750;SDS011;14345;48.272;25.926;2023-08-30T04:01:14;21.55;;;11.18;;
26750;SDS011;14345;48.272;25.926;2023-08-30T04:03:40;23.17;;;11.73;;
26750;SDS011;14345;48.272;25.926;2023-08-30T04:06:06;17.90;;;11.52;;
26750;SDS011;14345;48.272;25.926;2023-08-30T04:08:32;18.98;;;11.13;;
26750;SDS011;14345;48.272;25.926;2023-08-30T04:10:58;16.73;;;10.05;;
26750;SDS011;14345;48.272;25.926;2023-08-30T04:13:24;19.50;;;11.45;;
26750;SDS011;14345;48.272;25.926;2023-08-30T04:15:50;20.90;;;11.95;;
26750;SDS011;14345;48.272;25.926;2023-08-30T04:18:16;23.33;;;13.45;;
26750;SDS011;14345;48.272;25.926;2023-08-30T04:20:46;25.15;;;16.85;;
26750;SDS011;14345;48.272;25.926;2023-08-30T04:23:12;26.70;;;15.63;;
26750;SDS011;14345;48.272;25.926;2023-08-30T04:25:39;22.80;;;14.77;;
26750;SDS011;14345;48.272;25.926;2023-08-30T04:28:05;21.98;;;12.20;;
26750;SDS011;14345;48.272;25.926;2023-08-30T04:30:31;22.45;;;11.00;;
26750;SDS011;14345;48.272;25.926;2023-08-30T04:32:57;15.98;;;9.80;;
26750;SDS011;14345;48.272;25.926;2023-08-30T04:35:24;20.52;;;10.50;;
26750;SDS011;14345;48.272;25.926;2023-08-30T04:37:50;17.40;;;10.02;;
26750;SDS011;14345;48.272;25.926;2023-08-30T04:40:16;17.17;;;8.35;;
26750;SDS011;14345;48.272;25.926;2023-08-30T04:42:42;13.52;;;7.53;;
26750;SDS011;14345;48.272;25.926;2023-08-30T04:45:08;14.48;;;7.25;;
26750;SDS011;14345;48.272;25.926;2023-08-30T04:47:35;12.32;;;7.47;;
26750;SDS011;14345;48.272;25.926;2023-08-30T04:50:01;11.57;;;6.50;;
26750;SDS011;14345;48.272;25.926;2023-08-30T04:52:27;13.43;;;6.57;;
26750;SDS011;14345;48.272;25.926;2023-08-30T04:54:53;8.65;;;5.28;;
26750;SDS011;14345;48.272;25.926;2023-08-30T04:57:19;9.45;;;4.57;;
26750;SDS011;14345;48.272;25.926;2023-08-30T04:59:45;18.92;;;4.63;;
26750;SDS011;14345;48.272;25.926;2023-08-30T05:02:11;8.45;;;4.10;;
26750;SDS011;14345;48.272;25.926;2023-08-30T05:04:37;5.82;;;3.40;;
26750;SDS011;14345;48.272;25.926;2023-08-30T05:07:03;6.40;;;3.50;;
26750;SDS011;14345;48.272;25.926;2023-08-30T05:09:30;6.00;;;3.53;;
26750;SDS011;14345;48.272;25.926;2023-08-30T05:11:57;7.95;;;3.10;;
26750;SDS011;14345;48.272;25.926;2023-08-30T05:14:23;6.63;;;3.10;;
26750;SDS011;14345;48.272;25.926;2023-08-30T05:16:49;11.68;;;4.03;;
26750;SDS011;14345;48.272;25.926;2023-08-30T05:19:15;8.73;;;3.97;;
26750;SDS011;14345;48.272;25.926;2023-08-30T05:21:42;4.47;;;3.10;;
26750;SDS011;14345;48.272;25.926;2023-08-30T05:24:08;8.13;;;3.30;;
26750;SDS011;14345;48.272;25.926;2023-08-30T05:26:35;12.27;;;3.60;;
26750;SDS011;14345;48.272;25.926;2023-08-30T05:29:01;7.60;;;3.20;;
26750;SDS011;14345;48.272;25.926;2023-08-30T05:31:27;5.93;;;3.13;;
26750;SDS011;14345;48.272;25.926;2023-08-30T05:33:53;8.25;;;3.30;;
26750;SDS011;14345;48.272;25.926;2023-08-30T05:36:19;6.97;;;3.10;;
26750;SDS011;14345;48.272;25.926;2023-08-30T05:38:45;9.10;;;3.15;;
26750;SDS011;14345;48.272;25.926;2023-08-30T05:41:11;9.90;;;3.60;;
26750;SDS011;14345;48.272;25.926;2023-08-30T05:43:37;7.20;;;3.72;;
26750;SDS011;14345;48.272;25.926;2023-08-30T05:46:03;8.30;;;3.42;;
26750;SDS011;14345;48.272;25.926;2023-08-30T05:48:30;7.35;;;3.00;;
26750;SDS011;14345;48.272;25.926;2023-08-30T05:50:56;11.07;;;3.17;;
26750;SDS011;14345;48.272;25.926;2023-08-30T05:53:22;11.18;;;3.03;;
26750;SDS011;14345;48.272;25.926;2023-08-30T05:55:48;9.00;;;2.85;;
26750;SDS011;14345;48.272;25.926;2023-08-30T05:58:14;5.43;;;2.15;;
26750;SDS011;14345;48.272;25.926;2023-08-30T06:00:42;8.25;;;2.42;;
26750;SDS011;14345;48.272;25.926;2023-08-30T06:03:08;7.65;;;2.40;;
26750;SDS011;14345;48.272;25.926;2023-08-30T06:05:35;4.72;;;2.67;;
26750;SDS011;14345;48.272;25.926;2023-08-30T06:08:01;6.85;;;3.30;;
26750;SDS011;14345;48.272;25.926;2023-08-30T06:10:27;7.05;;;2.90;;
26750;SDS011;14345;48.272;25.926;2023-08-30T06:12:53;6.03;;;3.20;;
26750;SDS011;14345;48.272;25.926;2023-08-30T06:15:19;6.45;;;2.97;;
26750;SDS011;14345;48.272;25.926;2023-08-30T06:17:45;11.18;;;3.13;;
26750;SDS011;14345;48.272;25.926;2023-08-30T06:20:12;9.13;;;3.20;;
26750;SDS011;14345;48.272;25.926;2023-08-30T06:22:38;6.65;;;3.65;;
26750;SDS011;14345;48.272;25.926;2023-08-30T06:25:06;10.48;;;3.40;;
26750;SDS011;14345;48.272;25.926;2023-08-30T06:27:32;9.40;;;3.42;;
26750;SDS011;14345;48.272;25.926;2023-08-30T06:29:58;9.13;;;3.30;;
26750;SDS011;14345;48.272;25.926;2023-08-30T06:32:24;7.32;;;2.80;;
26750;SDS011;14345;48.272;25.926;2023-08-30T06:34:51;6.68;;;3.03;;
26750;SDS011;14345;48.272;25.926;2023-08-30T06:37:16;10.88;;;3.38;;
26750;SDS011;14345;48.272;25.926;2023-08-30T06:39:42;7.90;;;2.90;;
26750;SDS011;14345;48.272;25.926;2023-08-30T06:42:08;6.43;;;2.90;;
26750;SDS011;14345;48.272;25.926;2023-08-30T06:44:34;4.07;;;3.03;;
26750;SDS011;14345;48.272;25.926;2023-08-30T06:47:00;7.47;;;3.33;;
26750;SDS011;14345;48.272;25.926;2023-08-30T06:49:26;9.20;;;2.60;;
26750;SDS011;14345;48.272;25.926;2023-08-30T06:51:52;6.32;;;3.30;;
26750;SDS011;14345;48.272;25.926;2023-08-30T06:54:18;8.15;;;2.63;;
26750;SDS011;14345;48.272;25.926;2023-08-30T06:56:57;8.05;;;3.10;;
26750;SDS011;14345;48.272;25.926;2023-08-30T06:59:23;8.15;;;3.38;;
26750;SDS011;14345;48.272;25.926;2023-08-30T07:01:49;6.85;;;3.30;;
26750;SDS011;14345;48.272;25.926;2023-08-30T07:04:15;8.57;;;3.33;;
26750;SDS011;14345;48.272;25.926;2023-08-30T07:06:41;7.88;;;3.40;;
26750;SDS011;14345;48.272;25.926;2023-08-30T07:09:07;11.48;;;3.50;;
26750;SDS011;14345;48.272;25.926;2023-08-30T07:11:34;9.77;;;3.85;;
26750;SDS011;14345;48.272;25.926;2023-08-30T07:14:00;6.93;;;3.70;;
26750;SDS011;14345;48.272;25.926;2023-08-30T07:16:26;15.68;;;4.95;;
26750;SDS011;14345;48.272;25.926;2023-08-30T07:18:52;16.38;;;5.38;;
26750;SDS011;14345;48.272;25.926;2023-08-30T07:21:18;12.98;;;5.82;;
26750;SDS011;14345;48.272;25.926;2023-08-30T07:23:44;16.65;;;5.60;;
26750;SDS011;14345;48.272;25.926;2023-08-30T07:26:10;14.32;;;5.65;;
26750;SDS011;14345;48.272;25.926;2023-08-30T07:28:36;12.23;;;6.30;;
26750;SDS011;14345;48.272;25.926;2023-08-30T07:31:03;12.48;;;7.07;;
26750;SDS011;14345;48.272;25.926;2023-08-30T07:33:29;22.90;;;7.60;;
26750;SDS011;14345;48.272;25.926;2023-08-30T07:35:55;13.77;;;7.85;;
26750;SDS011;14345;48.272;25.926;2023-08-30T07:38:21;15.60;;;8.82;;
26750;SDS011;14345;48.272;25.926;2023-08-30T07:40:47;23.45;;;10.20;;
26750;SDS011;14345;48.272;25.926;2023-08-30T07:43:13;15.48;;;8.82;;
26750;SDS011;14345;48.272;25.926;2023-08-30T07:45:39;19.45;;;9.52;;
26750;SDS011;14345;48.272;25.926;2023-08-30T07:48:06;14.20;;;8.88;;
26750;SDS011;14345;48.272;25.926;2023-08-30T07:50:32;15.38;;;8.40;;
26750;SDS011;14345;48.272;25.926;2023-08-30T07:52:58;21.20;;;8.50;;
26750;SDS011;14345;48.272;25.926;2023-08-30T07:55:24;12.30;;;7.72;;
26750;SDS011;14345;48.272;25.926;2023-08-30T07:57:50;16.00;;;8.07;;
26750;SDS011;14345;48.272;25.926;2023-08-30T08:00:16;16.92;;;8.93;;
26750;SDS011;14345;48.272;25.926;2023-08-30T08:02:42;15.45;;;8.13;;
26750;SDS011;14345;48.272;25.926;2023-08-30T08:05:08;14.77;;;8.30;;
26750;SDS011;14345;48.272;25.926;2023-08-30T08:07:37;13.90;;;8.48;;
26750;SDS011;14345;48.272;25.926;2023-08-30T08:10:04;13.40;;;8.60;;
26750;SDS011;14345;48.272;25.926;2023-08-30T08:12:30;17.05;;;8.52;;
26750;SDS011;14345;48.272;25.926;2023-08-30T08:14:56;17.35;;;8.85;;
26750;SDS011;14345;48.272;25.926;2023-08-30T08:17:22;18.45;;;9.30;;
26750;SDS011;14345;48.272;25.926;2023-08-30T08:19:48;15.82;;;8.93;;
26750;SDS011;14345;48.272;25.926;2023-08-30T08:22:14;21.80;;;9.75;;
26750;SDS011;14345;48.272;25.926;2023-08-30T08:24:40;23.35;;;8.60;;
26750;SDS011;14345;48.272;25.926;2023-08-30T08:27:06;14.90;;;7.93;;
26750;SDS011;14345;48.272;25.926;2023-08-30T08:29:32;14.75;;;7.50;;
26750;SDS011;14345;48.272;25.926;2023-08-30T08:31:58;15.00;;;7.82;;
26750;SDS011;14345;48.272;25.926;2023-08-30T08:34:24;14.95;;;7.90;;
26750;SDS011;14345;48.272;25.926;2023-08-30T08:36:50;14.38;;;7.72;;
26750;SDS011;14345;48.272;25.926;2023-08-30T08:39:16;13.38;;;7.05;;
26750;SDS011;14345;48.272;25.926;2023-08-30T08:41:44;11.82;;;6.35;;
26750;SDS011;14345;48.272;25.926;2023-08-30T08:44:11;10.88;;;6.20;;
26750;SDS011;14345;48.272;25.926;2023-08-30T08:46:38;12.60;;;6.60;;
26750;SDS011;14345;48.272;25.926;2023-08-30T08:49:09;9.57;;;5.65;;
26750;SDS011;14345;48.272;25.926;2023-08-30T08:51:35;7.35;;;4.55;;
26750;SDS011;14345;48.272;25.926;2023-08-30T08:54:02;8.43;;;4.78;;
26750;SDS011;14345;48.272;25.926;2023-08-30T08:56:29;7.60;;;4.30;;
26750;SDS011;14345;48.272;25.926;2023-08-30T08:58:56;9.73;;;4.68;;
26750;SDS011;14345;48.272;25.926;2023-08-30T09:01:22;9.75;;;4.15;;
26750;SDS011;14345;48.272;25.926;2023-08-30T09:03:50;8.93;;;3.70;;
26750;SDS011;14345;48.272;25.926;2023-08-30T09:06:16;4.63;;;3.35;;
26750;SDS011;14345;48.272;25.926;2023-08-30T09:08:42;5.35;;;3.15;;
26750;SDS011;14345;48.272;25.926;2023-08-30T09:11:08;6.90;;;3.10;;
26750;SDS011;14345;48.272;25.926;2023-08-30T09:13:34;6.18;;;2.80;;
26750;SDS011;14345;48.272;25.926;2023-08-30T09:16:00;8.15;;;3.30;;
26750;SDS011;14345;48.272;25.926;2023-08-30T09:18:27;5.20;;;2.70;;
26750;SDS011;14345;48.272;25.926;2023-08-30T09:21:06;4.78;;;2.45;;
26750;SDS011;14345;48.272;25.926;2023-08-30T09:23:32;7.97;;;2.70;;
26750;SDS011;14345;48.272;25.926;2023-08-30T09:25:59;4.88;;;2.60;;
26750;SDS011;14345;48.272;25.926;2023-08-30T09:28:25;6.22;;;2.95;;
26750;SDS011;14345;48.272;25.926;2023-08-30T09:30:52;4.88;;;2.75;;
26750;SDS011;14345;48.272;25.926;2023-08-30T09:33:21;6.13;;;3.03;;
26750;SDS011;14345;48.272;25.926;2023-08-30T09:35:47;6.40;;;3.63;;
26750;SDS011;14345;48.272;25.926;2023-08-30T09:38:19;5.20;;;2.92;;
26750;SDS011;14345;48.272;25.926;2023-08-30T09:40:45;8.02;;;3.60;;
26750;SDS011;14345;48.272;25.926;2023-08-30T09:43:12;9.02;;;3.78;;
26750;SDS011;14345;48.272;25.926;2023-08-30T09:45:38;6.18;;;3.95;;
26750;SDS011;14345;48.272;25.926;2023-08-30T09:48:04;7.82;;;4.47;;
26750;SDS011;14345;48.272;25.926;2023-08-30T09:50:34;9.60;;;5.28;;
26750;SDS011;14345;48.272;25.926;2023-08-30T09:53:07;12.18;;;5.25;;
26750;SDS011;14345;48.272;25.926;2023-08-30T09:58:01;8.60;;;5.13;;
26750;SDS011;14345;48.272;25.926;2023-08-30T10:00:29;10.95;;;5.72;;
26750;SDS011;14345;48.272;25.926;2023-08-30T10:02:55;10.65;;;5.78;;
26750;SDS011;14345;48.272;25.926;2023-08-30T10:05:24;17.27;;;5.93;;
26750;SDS011;14345;48.272;25.926;2023-08-30T10:07:50;8.85;;;5.50;;
26750;SDS011;14345;48.272;25.926;2023-08-30T10:10:17;10.82;;;5.40;;
26750;SDS011;14345;48.272;25.926;2023-08-30T10:12:43;9.75;;;5.43;;
26750;SDS011;14345;48.272;25.926;2023-08-30T10:15:11;7.95;;;5.15;;
26750;SDS011;14345;48.272;25.926;2023-08-30T10:17:38;9.98;;;4.78;;
26750;SDS011;14345;48.272;25.926;2023-08-30T10:20:06;6.82;;;4.85;;
26750;SDS011;14345;48.272;25.926;2023-08-30T10:22:33;12.57;;;4.93;;
26750;SDS011;14345;48.272;25.926;2023-08-30T10:25:02;7.75;;;4.95;;
26750;SDS011;14345;48.272;25.926;2023-08-30T10:27:29;6.15;;;4.38;;
26750;SDS011;14345;48.272;25.926;2023-08-30T10:29:57;7.70;;;4.30;;
26750;SDS011;14345;48.272;25.926;2023-08-30T10:32:24;8.48;;;4.18;;
26750;SDS011;14345;48.272;25.926;2023-08-30T10:34:50;6.38;;;4.18;;
26750;SDS011;14345;48.272;25.926;2023-08-30T10:37:21;6.43;;;3.90;;
26750;SDS011;14345;48.272;25.926;2023-08-30T10:39:49;8.48;;;3.78;;
26750;SDS011;14345;48.272;25.926;2023-08-30T10:42:15;6.65;;;3.70;;
26750;SDS011;14345;48.272;25.926;2023-08-30T10:47:24;6.80;;;3.40;;
26750;SDS011;14345;48.272;25.926;2023-08-30T10:49:57;4.63;;;3.03;;
26750;SDS011;14345;48.272;25.926;2023-08-30T10:52:24;5.07;;;2.85;;
26750;SDS011;14345;48.272;25.926;2023-08-30T10:54:50;4.47;;;2.88;;
26750;SDS011;14345;48.272;25.926;2023-08-30T10:57:20;5.63;;;3.13;;
26750;SDS011;14345;48.272;25.926;2023-08-30T11:02:35;5.97;;;3.67;;
26750;SDS011;14345;48.272;25.926;2023-08-30T11:05:02;6.38;;;3.22;;
26750;SDS011;14345;48.272;25.926;2023-08-30T11:07:28;6.20;;;3.45;;
26750;SDS011;14345;48.272;25.926;2023-08-30T11:09:54;5.28;;;3.63;;
26750;SDS011;14345;48.272;25.926;2023-08-30T11:12:20;7.40;;;3.60;;
26750;SDS011;14345;48.272;25.926;2023-08-30T11:14:47;7.32;;;4.03;;
26750;SDS011;14345;48.272;25.926;2023-08-30T11:17:15;9.20;;;3.83;;
26750;SDS011;14345;48.272;25.926;2023-08-30T11:19:42;8.98;;;4.30;;
26750;SDS011;14345;48.272;25.926;2023-08-30T11:22:08;7.82;;;3.90;;
26750;SDS011;14345;48.272;25.926;2023-08-30T11:24:34;5.32;;;3.60;;
26750;SDS011;14345;48.272;25.926;2023-08-30T11:27:00;5.40;;;3.15;;
26750;SDS011;14345;48.272;25.926;2023-08-30T11:29:27;6.47;;;3.47;;
26750;SDS011;14345;48.272;25.926;2023-08-30T11:31:53;5.50;;;3.30;;
26750;SDS011;14345;48.272;25.926;2023-08-30T11:34:22;5.82;;;2.85;;
26750;SDS011;14345;48.272;25.926;2023-08-30T11:36:48;4.45;;;3.03;;
26750;SDS011;14345;48.272;25.926;2023-08-30T11:39:18;4.75;;;3.38;;
26750;SDS011;14345;48.272;25.926;2023-08-30T11:41:44;4.13;;;3.13;;
26750;SDS011;14345;48.272;25.926;2023-08-30T11:44:10;5.20;;;3.22;;
26750;SDS011;14345;48.272;25.926;2023-08-30T11:46:37;7.00;;;3.08;;
26750;SDS011;14345;48.272;25.926;2023-08-30T11:49:03;5.05;;;3.08;;
26750;SDS011;14345;48.272;25.926;2023-08-30T11:51:29;5.97;;;3.15;;
26750;SDS011;14345;48.272;25.926;2023-08-30T11:53:55;4.10;;;2.63;;
26750;SDS011;14345;48.272;25.926;2023-08-30T11:56:22;6.25;;;2.60;;
26750;SDS011;14345;48.272;25.926;2023-08-30T11:58:48;4.32;;;2.80;;
26750;SDS011;14345;48.272;25.926;2023-08-30T12:01:16;8.98;;;3.25;;
26750;SDS011;14345;48.272;25.926;2023-08-30T12:03:44;3.90;;;2.70;;
26750;SDS011;14345;48.272;25.926;2023-08-30T12:06:15;2.85;;;2.33;;
26750;SDS011;14345;48.272;25.926;2023-08-30T12:08:42;7.25;;;3.70;;
26750;SDS011;14345;48.272;25.926;2023-08-30T12:11:17;5.28;;;2.92;;
26750;SDS011;14345;48.272;25.926;2023-08-30T12:13:46;3.50;;;2.30;;
26750;SDS011;14345;48.272;25.926;2023-08-30T12:16:16;5.80;;;3.20;;
26750;SDS011;14345;48.272;25.926;2023-08-30T12:18:42;4.47;;;2.60;;
26750;SDS011;14345;48.272;25.926;2023-08-30T12:21:08;5.07;;;2.70;;
26750;SDS011;14345;48.272;25.926;2023-08-30T12:23:34;4.80;;;2.70;;
26750;SDS011;14345;48.272;25.926;2023-08-30T12:26:04;6.35;;;2.35;;
26750;SDS011;14345;48.272;25.926;2023-08-30T12:28:31;5.47;;;2.47;;
26750;SDS011;14345;48.272;25.926;2023-08-30T12:30:57;4.47;;;2.58;;
26750;SDS011;14345;48.272;25.926;2023-08-30T12:33:24;3.65;;;2.22;;
26750;SDS011;14345;48.272;25.926;2023-08-30T12:35:50;5.25;;;3.00;;
26750;SDS011;14345;48.272;25.926;2023-08-30T12:38:16;4.47;;;2.70;;
26750;SDS011;14345;48.272;25.926;2023-08-30T12:40:46;5.63;;;2.97;;
26750;SDS011;14345;48.272;25.926;2023-08-30T12:43:13;5.57;;;2.30;;
26750;SDS011;14345;48.272;25.926;2023-08-30T12:45:39;5.13;;;2.42;;
26750;SDS011;14345;48.272;25.926;2023-08-30T12:48:06;4.07;;;2.15;;
26750;SDS011;14345;48.272;25.926;2023-08-30T12:50:32;8.27;;;2.90;;
26750;SDS011;14345;48.272;25.926;2023-08-30T12:52:58;3.85;;;2.30;;
26750;SDS011;14345;48.272;25.926;2023-08-30T12:55:24;3.15;;;2.22;;
26750;SDS011;14345;48.272;25.926;2023-08-30T12:57:50;4.43;;;2.45;;
26750;SDS011;14345;48.272;25.926;2023-08-30T13:00:16;4.43;;;2.28;;
26750;SDS011;14345;48.272;25.926;2023-08-30T13:02:42;5.55;;;2.60;;
26750;SDS011;14345;48.272;25.926;2023-08-30T13:05:08;3.80;;;2.20;;
26750;SDS011;14345;48.272;25.926;2023-08-30T13:07:34;4.50;;;2.30;;
26750;SDS011;14345;48.272;25.926;2023-08-30T13:10:00;4.60;;;2.28;;
26750;SDS011;14345;48.272;25.926;2023-08-30T13:12:26;2.40;;;1.95;;
26750;SDS011;14345;48.272;25.926;2023-08-30T13:14:52;4.55;;;2.03;;
26750;SDS011;14345;48.272;25.926;2023-08-30T13:17:18;7.03;;;2.95;;
26750;SDS011;14345;48.272;25.926;2023-08-30T13:19:44;6.07;;;2.92;;
26750;SDS011;14345;48.272;25.926;2023-08-30T13:22:10;4.55;;;2.50;;
26750;SDS011;14345;48.272;25.926;2023-08-30T13:24:36;5.65;;;3.10;;
26750;SDS011;14345;48.272;25.926;2023-08-30T13:27:02;6.50;;;2.90;;
26750;SDS011;14345;48.272;25.926;2023-08-30T13:29:29;5.00;;;2.75;;
26750;SDS011;14345;48.272;25.926;2023-08-30T13:31:55;6.47;;;2.67;;
26750;SDS011;14345;48.272;25.926;2023-08-30T13:34:21;5.50;;;2.92;;
26750;SDS011;14345;48.272;25.926;2023-08-30T13:36:47;5.97;;;2.40;;
26750;SDS011;14345;48.272;25.926;2023-08-30T13:39:13;5.50;;;2.40;;
26750;SDS011;14345;48.272;25.926;2023-08-30T13:41:39;3.33;;;2.08;;
26750;SDS011;14345;48.272;25.926;2023-08-30T13:44:05;5.65;;;1.90;;
26750;SDS011;14345;48.272;25.926;2023-08-30T13:46:31;3.28;;;1.75;;
26750;SDS011;14345;48.272;25.926;2023-08-30T13:48:57;2.90;;;1.80;;
26750;SDS011;14345;48.272;25.926;2023-08-30T13:51:24;3.30;;;1.83;;
26750;SDS011;14345;48.272;25.926;2023-08-30T13:53:50;5.18;;;1.88;;
26750;SDS011;14345;48.272;25.926;2023-08-30T13:56:17;3.65;;;2.17;;
26750;SDS011;14345;48.272;25.926;2023-08-30T13:58:43;2.95;;;1.70;;
26750;SDS011;14345;48.272;25.926;2023-08-30T14:01:09;2.75;;;1.70;;
26750;SDS011;14345;48.272;25.926;2023-08-30T14:03:36;4.25;;;2.25;;
26750;SDS011;14345;48.272;25.926;2023-08-30T14:06:02;3.47;;;2.17;;
26750;SDS011;14345;48.272;25.926;2023-08-30T14:08:28;8.40;;;2.42;;
26750;SDS011;14345;48.272;25.926;2023-08-30T14:10:54;4.45;;;1.92;;
26750;SDS011;14345;48.272;25.926;2023-08-30T14:13:20;5.00;;;1.90;;
26750;SDS011;14345;48.272;25.926;2023-08-30T14:15:46;3.90;;;1.80;;
26750;SDS011;14345;48.272;25.926;2023-08-30T14:18:13;2.50;;;1.92;;
26750;SDS011;14345;48.272;25.926;2023-08-30T14:20:40;2.33;;;1.77;;
26750;SDS011;14345;48.272;25.926;2023-08-30T14:23:06;4.10;;;1.63;;
26750;SDS011;14345;48.272;25.926;2023-08-30T14:25:32;4.18;;;1.92;;
26750;SDS011;14345;48.272;25.926;2023-08-30T14:27:59;4.53;;;1.40;;
26750;SDS011;14345;48.272;25.926;2023-08-30T14:30:25;1.48;;;1.27;;
26750;SDS011;14345;48.272;25.926;2023-08-30T14:32:51;3.55;;;1.45;;
26750;SDS011;14345;48.272;25.926;2023-08-30T14:35:18;4.95;;;1.50;;